createdAt,value
2022-08-01T00:01:21.834Z,99.90
2022-08-01T00:06:39.666Z,99.90
2022-08-01T00:09:06.537Z,99.90
2022-08-01T00:11:33.678Z,99.90
2022-08-01T00:14:00.522Z,99.90
2022-08-01T00:16:27.570Z,99.90
2022-08-01T00:18:55.029Z,99.90
2022-08-01T00:21:22.787Z,99.90
2022-08-01T00:23:49.846Z,99.90
2022-08-01T00:26:16.987Z,99.90
2022-08-01T00:28:43.826Z,99.90
2022-08-01T00:31:10.878Z,99.90
2022-08-01T00:33:37.826Z,99.90
2022-08-01T00:36:07.123Z,99.90
2022-08-01T00:38:34.066Z,99.90
2022-08-01T00:41:01.018Z,99.90
2022-08-01T00:43:28.062Z,99.90
2022-08-01T00:45:55.012Z,99.90
2022-08-01T00:48:21.952Z,99.90
2022-08-01T00:53:51.982Z,99.90
2022-08-01T00:56:24.872Z,99.90
2022-08-01T00:58:52.333Z,99.90
2022-08-01T01:01:21.832Z,99.90
2022-08-01T01:03:59.030Z,99.90
2022-08-01T01:06:29.111Z,99.90
2022-08-01T01:09:13.179Z,99.90
2022-08-01T01:12:04.436Z,99.90
2022-08-01T01:14:45.650Z,99.90
2022-08-01T01:17:14.768Z,99.90
2022-08-01T01:19:48.256Z,99.90
2022-08-01T01:22:23.503Z,99.90
2022-08-01T01:25:18.635Z,99.90
2022-08-01T01:28:21.398Z,99.90
2022-08-01T01:30:52.553Z,99.90
2022-08-01T01:33:21.843Z,99.90
2022-08-01T01:35:53.518Z,99.90
2022-08-01T01:38:23.924Z,99.90
2022-08-01T01:40:52.037Z,99.90
2022-08-01T01:43:19.613Z,99.90
2022-08-01T01:45:49.187Z,99.90
2022-08-01T01:48:21.499Z,99.90
2022-08-01T01:50:49.308Z,99.90
2022-08-01T01:53:20.437Z,99.90
2022-08-01T01:55:50.971Z,99.90
2022-08-01T01:58:20.778Z,99.90
2022-08-01T02:00:49.157Z,99.90
2022-08-01T02:03:17.737Z,99.90
2022-08-01T02:05:45.004Z,99.90
2022-08-01T02:08:15.368Z,99.90
2022-08-01T02:11:03.335Z,99.90
2022-08-01T02:13:33.687Z,99.90
2022-08-01T02:16:02.269Z,99.90
2022-08-01T02:18:30.273Z,99.90
2022-08-01T02:20:59.433Z,99.90
2022-08-01T02:23:30.472Z,99.90
2022-08-01T02:26:10.688Z,99.90
2022-08-01T02:28:56.876Z,99.90
2022-08-01T02:31:24.609Z,99.90
2022-08-01T02:34:03.248Z,99.90
2022-08-01T02:36:33.557Z,99.90
2022-08-01T02:39:03.621Z,99.90
2022-08-01T02:41:32.879Z,99.90
2022-08-01T02:44:04.421Z,99.90
2022-08-01T02:46:40.072Z,99.90
2022-08-01T02:49:09.845Z,99.90
2022-08-01T02:51:38.235Z,99.90
2022-08-01T02:54:07.292Z,99.90
2022-08-01T02:56:38.002Z,99.90
2022-08-01T02:59:08.526Z,99.90
2022-08-01T03:01:36.878Z,99.90
2022-08-01T03:04:06.135Z,99.90
2022-08-01T03:06:34.678Z,99.90
2022-08-01T03:09:04.222Z,99.90
2022-08-01T03:11:33.348Z,99.90
2022-08-01T03:14:06.074Z,99.90
2022-08-01T03:16:36.073Z,99.90
2022-08-01T03:19:03.439Z,99.90
2022-08-01T03:21:32.446Z,99.90
2022-08-01T03:24:01.217Z,99.90
2022-08-01T03:26:31.509Z,99.90
2022-08-01T03:29:02.811Z,99.90
2022-08-01T03:31:31.233Z,99.90
2022-08-01T03:34:00.751Z,99.90
2022-08-01T03:36:31.613Z,99.90
2022-08-01T03:39:00.893Z,99.90
2022-08-01T03:41:33.542Z,99.90
2022-08-01T03:44:06.302Z,99.90
2022-08-01T03:46:47.297Z,99.90
2022-08-01T03:49:21.248Z,99.90
2022-08-01T03:51:50.494Z,99.90
2022-08-01T03:54:21.502Z,99.90
2022-08-01T03:56:50.663Z,99.90
2022-08-01T03:59:18.776Z,99.90
2022-08-01T04:01:47.192Z,99.90
2022-08-01T04:04:14.507Z,99.90
2022-08-01T04:06:42.463Z,99.90
2022-08-01T04:09:13.284Z,99.90
2022-08-01T04:11:41.855Z,99.90
2022-08-01T04:14:09.333Z,99.90
2022-08-01T04:16:36.315Z,99.90
2022-08-01T04:19:03.534Z,99.90
2022-08-01T04:21:33.511Z,99.90
2022-08-01T04:24:18.703Z,99.90
2022-08-01T04:29:40.124Z,99.90
2022-08-01T04:32:12.384Z,99.90
2022-08-01T04:34:42.711Z,99.90
2022-08-01T04:37:13.157Z,99.90
2022-08-01T04:39:51.121Z,99.90
2022-08-01T04:42:26.041Z,99.90
2022-08-01T04:47:53.140Z,99.90
2022-08-01T04:50:22.883Z,99.90
2022-08-01T04:52:50.002Z,99.90
2022-08-01T04:55:18.173Z,99.90
2022-08-01T04:57:47.701Z,99.90
2022-08-01T05:00:14.728Z,99.90
2022-08-01T05:02:41.873Z,99.90
2022-08-01T05:05:09.229Z,99.90
2022-08-01T05:07:44.235Z,99.90
2022-08-01T05:10:13.265Z,99.90
2022-08-01T05:12:40.407Z,99.90
2022-08-01T05:15:13.174Z,99.90
2022-08-01T05:17:43.604Z,99.90
2022-08-01T05:20:12.609Z,99.90
2022-08-01T05:22:39.889Z,99.90
2022-08-01T05:25:07.423Z,99.90
2022-08-01T05:30:31.102Z,99.90
2022-08-01T05:32:57.842Z,99.90
2022-08-01T05:35:24.902Z,99.90
2022-08-01T05:38:14.158Z,99.90
2022-08-01T05:40:42.239Z,99.90
2022-08-01T05:43:09.294Z,99.90
2022-08-01T05:45:36.129Z,99.90
2022-08-01T05:48:03.169Z,99.90
2022-08-01T05:50:30.038Z,99.90
2022-08-01T05:52:56.958Z,99.90
2022-08-01T05:55:23.810Z,99.90
2022-08-01T05:57:50.742Z,99.90
2022-08-01T06:00:17.796Z,99.90
2022-08-01T06:02:44.901Z,99.90
2022-08-01T06:05:13.549Z,99.90
2022-08-01T06:07:41.386Z,99.90
2022-08-01T06:10:09.472Z,99.90
2022-08-01T06:12:36.814Z,99.90
2022-08-01T06:15:05.408Z,99.90
2022-08-01T06:17:32.237Z,99.90
2022-08-01T06:22:51.756Z,99.90
2022-08-01T06:25:21.394Z,99.90
2022-08-01T06:27:49.099Z,99.90
2022-08-01T06:30:16.147Z,99.90
2022-08-01T06:32:42.989Z,99.90
2022-08-01T06:35:10.064Z,99.90
2022-08-01T06:37:37.489Z,99.90
2022-08-01T06:40:13.398Z,99.90
2022-08-01T06:42:43.573Z,99.90
2022-08-01T06:45:11.849Z,99.90
2022-08-01T06:47:40.743Z,99.90
2022-08-01T06:50:09.597Z,99.90
2022-08-01T06:52:37.286Z,99.90
2022-08-01T06:55:05.157Z,99.90
2022-08-01T06:57:32.010Z,99.90
2022-08-01T06:59:58.640Z,99.90
2022-08-01T07:02:25.339Z,99.90
2022-08-01T07:04:52.037Z,99.90
2022-08-01T07:07:18.743Z,99.90
2022-08-01T07:09:45.721Z,99.90
2022-08-01T07:12:12.468Z,99.90
2022-08-01T07:14:39.198Z,99.90
2022-08-01T07:17:05.811Z,99.90
2022-08-01T07:19:32.549Z,99.90
2022-08-01T07:21:59.183Z,99.90
2022-08-01T07:24:26.958Z,99.90
2022-08-01T07:26:55.996Z,99.90
2022-08-01T07:29:25.983Z,99.90
2022-08-01T07:31:57.023Z,99.90
2022-08-01T07:34:24.441Z,99.90
2022-08-01T07:36:51.746Z,99.90
2022-08-01T07:39:18.701Z,99.90
2022-08-01T07:42:05.790Z,99.90
2022-08-01T07:44:32.543Z,99.90
2022-08-01T07:46:59.252Z,99.90
2022-08-01T07:49:26.065Z,99.90
2022-08-01T07:52:03.455Z,99.90
2022-08-01T07:54:39.441Z,99.90
2022-08-01T07:57:06.544Z,99.90
2022-08-01T07:59:33.852Z,99.90
2022-08-01T08:02:00.819Z,99.90
2022-08-01T08:04:28.610Z,99.90
2022-08-01T08:06:55.563Z,99.90
2022-08-01T08:09:22.460Z,99.90
2022-08-01T08:11:49.131Z,99.90
2022-08-01T08:14:19.655Z,99.90
2022-08-01T08:16:46.611Z,99.90
2022-08-01T08:19:13.359Z,99.90
2022-08-01T08:21:40.513Z,99.90
2022-08-01T08:24:25.827Z,99.90
2022-08-01T08:26:57.196Z,99.90
2022-08-01T08:29:24.727Z,99.90
2022-08-01T08:31:53.216Z,99.90
2022-08-01T08:34:20.576Z,99.90
2022-08-01T08:36:48.562Z,99.90
2022-08-01T08:39:18.936Z,99.90
2022-08-01T08:41:49.643Z,99.90
2022-08-01T08:44:17.645Z,99.90
2022-08-01T08:46:46.499Z,99.90
2022-08-01T08:49:16.993Z,99.90
2022-08-01T08:51:46.434Z,99.90
2022-08-01T08:54:14.307Z,99.90
2022-08-01T08:56:42.687Z,99.90
2022-08-01T08:59:09.602Z,99.90
2022-08-01T09:01:36.673Z,99.90
2022-08-01T09:04:04.632Z,99.90
2022-08-01T09:06:33.109Z,99.90
2022-08-01T09:09:00.308Z,99.90
2022-08-01T09:11:27.311Z,99.90
2022-08-01T09:14:14.786Z,99.90
2022-08-01T09:16:48.550Z,99.90
2022-08-01T09:19:40.500Z,99.90
2022-08-01T09:22:14.998Z,99.90
2022-08-01T09:24:42.419Z,99.90
2022-08-01T09:27:24.667Z,99.90
2022-08-01T09:30:00.697Z,99.90
2022-08-01T09:32:35.168Z,99.90
2022-08-01T09:35:30.458Z,99.90
2022-08-01T09:38:19.414Z,99.90
2022-08-01T09:40:53.550Z,99.90
2022-08-01T09:43:22.827Z,99.90
2022-08-01T09:45:50.813Z,99.90
2022-08-01T09:48:22.835Z,99.90
2022-08-01T09:50:55.362Z,99.90
2022-08-01T09:53:29.607Z,99.00
2022-08-01T09:56:10.714Z,98.10
2022-08-01T09:59:00.486Z,97.40
2022-08-01T10:01:48.759Z,96.90
2022-08-01T10:04:25.340Z,96.10
2022-08-01T10:07:04.213Z,95.70
2022-08-01T10:09:40.385Z,94.90
2022-08-01T10:12:09.105Z,95.90
2022-08-01T10:14:42.901Z,96.50
2022-08-01T10:17:18.521Z,96.80
2022-08-01T10:19:47.583Z,95.40
2022-08-01T10:22:18.744Z,94.20
2022-08-01T10:24:48.335Z,94.40
2022-08-01T10:27:24.365Z,94.90
2022-08-01T10:30:15.490Z,94.90
2022-08-01T10:32:50.451Z,95.10
2022-08-01T10:35:18.383Z,95.00
2022-08-01T10:38:05.892Z,95.20
2022-08-01T10:40:33.477Z,95.40
2022-08-01T10:43:02.946Z,95.50
2022-08-01T10:45:30.787Z,95.20
2022-08-01T10:48:03.760Z,95.40
2022-08-01T10:50:48.234Z,95.70
2022-08-01T10:53:23.215Z,95.10
2022-08-01T10:55:57.483Z,95.20
2022-08-01T10:58:30.206Z,93.90
2022-08-01T11:01:15.849Z,92.90
2022-08-01T11:04:01.591Z,91.80
2022-08-01T11:06:34.619Z,90.90
2022-08-01T11:09:36.874Z,90.10
2022-08-01T11:12:13.287Z,87.80
2022-08-01T11:15:02.810Z,87.90
2022-08-01T11:17:42.146Z,88.20
2022-08-01T11:20:13.669Z,87.10
2022-08-01T11:23:07.948Z,87.00
2022-08-01T11:26:03.076Z,84.90
2022-08-01T11:28:32.322Z,84.30
2022-08-01T11:31:11.589Z,84.50
2022-08-01T11:33:46.229Z,83.30
2022-08-01T11:36:14.474Z,84.00
2022-08-01T11:38:50.468Z,81.30
2022-08-01T11:41:38.153Z,80.50
2022-08-01T11:44:21.133Z,81.80
2022-08-01T11:47:02.400Z,80.70
2022-08-01T11:49:41.259Z,81.70
2022-08-01T11:52:27.767Z,80.60
2022-08-01T11:55:01.539Z,81.80
2022-08-01T11:57:35.767Z,82.70
2022-08-01T12:00:15.535Z,84.60
2022-08-01T12:02:45.403Z,86.50
2022-08-01T12:05:16.044Z,87.90
2022-08-01T12:07:46.797Z,87.60
2022-08-01T12:10:16.310Z,86.20
2022-08-01T12:12:55.721Z,82.10
2022-08-01T12:15:25.388Z,81.40
2022-08-01T12:18:03.749Z,81.30
2022-08-01T12:20:33.806Z,81.50
2022-08-01T12:23:09.311Z,80.70
2022-08-01T12:25:37.546Z,79.30
2022-08-01T12:28:06.290Z,79.30
2022-08-01T12:30:36.153Z,79.10
2022-08-01T12:33:08.239Z,80.30
2022-08-01T12:35:37.313Z,82.50
2022-08-01T12:38:06.462Z,84.00
2022-08-01T12:40:38.238Z,85.30
2022-08-01T12:43:09.247Z,86.40
2022-08-01T12:45:54.455Z,86.40
2022-08-01T12:48:24.222Z,87.80
2022-08-01T12:50:53.138Z,87.60
2022-08-01T12:53:21.515Z,88.10
2022-08-01T12:55:59.013Z,89.00
2022-08-01T12:58:32.305Z,87.20
2022-08-01T13:01:07.574Z,89.60
2022-08-01T13:03:34.466Z,90.10
2022-08-01T13:06:01.466Z,90.30
2022-08-01T13:08:32.962Z,90.30
2022-08-01T13:11:16.660Z,90.10
2022-08-01T13:13:51.113Z,88.90
2022-08-01T13:16:30.201Z,89.60
2022-08-01T13:19:01.655Z,89.30
2022-08-01T13:21:52.040Z,89.40
2022-08-01T13:24:28.041Z,89.80
2022-08-01T13:27:00.464Z,88.10
2022-08-01T13:29:31.519Z,89.10
2022-08-01T13:31:59.556Z,88.70
2022-08-01T13:34:35.916Z,88.40
2022-08-01T13:37:02.966Z,89.10
2022-08-01T13:39:43.134Z,89.10
2022-08-01T13:42:10.948Z,90.20
2022-08-01T13:44:46.340Z,90.30
2022-08-01T13:47:15.623Z,90.10
2022-08-01T13:49:42.993Z,90.20
2022-08-01T13:52:10.048Z,90.50
2022-08-01T13:54:37.326Z,90.80
2022-08-01T13:57:04.754Z,90.80
2022-08-01T13:59:31.423Z,91.00
2022-08-01T14:01:58.235Z,91.10
2022-08-01T14:04:25.006Z,90.70
2022-08-01T14:06:51.811Z,91.00
2022-08-01T14:09:24.271Z,90.90
2022-08-01T14:11:51.959Z,90.70
2022-08-01T14:14:18.732Z,90.90
2022-08-01T14:16:48.401Z,90.60
2022-08-01T14:19:17.476Z,90.00
2022-08-01T14:21:45.920Z,90.00
2022-08-01T14:24:12.549Z,89.30
2022-08-01T14:26:39.198Z,89.60
2022-08-01T14:29:05.902Z,89.90
2022-08-01T14:31:34.415Z,90.10
2022-08-01T14:34:01.525Z,90.10
2022-08-01T14:36:31.330Z,90.20
2022-08-01T14:39:00.271Z,90.60
2022-08-01T14:41:27.891Z,90.50
2022-08-01T14:43:54.778Z,90.60
2022-08-01T14:46:21.461Z,90.50
2022-08-01T14:48:48.113Z,90.50
2022-08-01T14:51:14.783Z,90.50
2022-08-01T14:53:46.848Z,90.30
2022-08-01T14:56:18.243Z,90.20
2022-08-01T14:58:44.969Z,90.10
2022-08-01T15:01:11.703Z,90.20
2022-08-01T15:03:38.496Z,90.00
2022-08-01T15:06:07.175Z,90.20
2022-08-01T15:08:34.020Z,90.20
2022-08-01T15:11:01.935Z,91.00
2022-08-01T15:13:28.676Z,90.60
2022-08-01T15:15:55.483Z,90.80
2022-08-01T15:18:27.694Z,91.30
2022-08-01T15:20:54.363Z,90.20
2022-08-01T15:23:21.821Z,90.40
2022-08-01T15:25:48.758Z,90.50
2022-08-01T15:28:15.471Z,90.40
2022-08-01T15:30:42.115Z,91.00
2022-08-01T15:33:08.965Z,90.70
2022-08-01T15:35:35.772Z,91.20
2022-08-01T15:38:03.073Z,91.50
2022-08-01T15:40:29.737Z,90.80
2022-08-01T15:42:56.536Z,90.70
2022-08-01T15:45:46.434Z,90.70
2022-08-01T15:48:10.010Z,90.70
2022-08-01T15:50:39.236Z,90.60
2022-08-01T15:53:06.865Z,90.50
2022-08-01T15:55:36.693Z,90.30
2022-08-01T15:58:05.725Z,90.00
2022-08-01T16:00:32.827Z,89.40
2022-08-01T16:03:05.646Z,89.90
2022-08-01T16:05:32.331Z,89.90
2022-08-01T16:08:01.528Z,90.30
2022-08-01T16:10:29.735Z,90.10
2022-08-01T16:12:56.602Z,90.40
2022-08-01T16:15:36.164Z,90.40
2022-08-01T16:18:05.406Z,90.90
2022-08-01T16:20:32.493Z,90.70
2022-08-01T16:22:59.231Z,90.40
2022-08-01T16:25:26.205Z,90.40
2022-08-01T16:27:52.838Z,90.40
2022-08-01T16:30:19.542Z,90.60
2022-08-01T16:32:48.778Z,90.90
2022-08-01T16:35:20.062Z,91.10
2022-08-01T16:37:47.143Z,91.50
2022-08-01T16:40:13.878Z,91.50
2022-08-01T16:42:40.625Z,91.30
2022-08-01T16:45:13.782Z,91.70
2022-08-01T16:47:41.379Z,91.70
2022-08-01T16:50:09.545Z,91.50
2022-08-01T16:52:36.367Z,91.70
2022-08-01T16:55:11.390Z,91.40
2022-08-01T16:57:38.552Z,91.70
2022-08-01T17:00:11.101Z,91.40
2022-08-01T17:02:47.910Z,91.60
2022-08-01T17:05:14.665Z,91.60
2022-08-01T17:07:41.529Z,91.80
2022-08-01T17:10:08.925Z,91.60
2022-08-01T17:12:35.612Z,91.50
2022-08-01T17:15:02.529Z,91.80
2022-08-01T17:17:29.323Z,92.00
2022-08-01T17:19:55.981Z,92.00
2022-08-01T17:22:22.687Z,91.80
2022-08-01T17:24:51.100Z,91.90
2022-08-01T17:27:18.465Z,91.80
2022-08-01T17:29:45.966Z,92.10
2022-08-01T17:32:13.976Z,92.10
2022-08-01T17:34:42.229Z,92.10
2022-08-01T17:37:10.321Z,92.30
2022-08-01T17:39:39.411Z,92.30
2022-08-01T17:42:07.405Z,91.90
2022-08-01T17:44:34.202Z,92.10
2022-08-01T17:47:00.905Z,92.10
2022-08-01T17:49:52.210Z,92.50
2022-08-01T17:52:14.341Z,92.40
2022-08-01T17:54:41.843Z,92.50
2022-08-01T17:57:10.197Z,92.90
2022-08-01T17:59:37.305Z,92.80
2022-08-01T18:02:04.386Z,92.70
2022-08-01T18:04:31.520Z,92.90
2022-08-01T18:07:00.996Z,93.30
2022-08-01T18:09:32.481Z,93.40
2022-08-01T18:12:00.126Z,93.10
2022-08-01T18:14:39.790Z,93.30
2022-08-01T18:17:11.174Z,93.50
2022-08-01T18:19:39.324Z,93.90
2022-08-01T18:22:28.909Z,94.30
2022-08-01T18:24:53.357Z,93.80
2022-08-01T18:27:20.166Z,93.90
2022-08-01T18:29:48.167Z,94.20
2022-08-01T18:32:15.374Z,93.70
2022-08-01T18:34:42.119Z,94.00
2022-08-01T18:37:11.339Z,94.00
2022-08-01T18:39:40.623Z,94.20
2022-08-01T18:42:07.330Z,94.20
2022-08-01T18:44:34.833Z,94.30
2022-08-01T18:47:01.456Z,94.50
2022-08-01T18:49:28.154Z,94.70
2022-08-01T18:51:54.943Z,95.00
2022-08-01T18:54:23.753Z,94.90
2022-08-01T18:56:50.391Z,95.30
2022-08-01T18:59:17.431Z,95.40
2022-08-01T19:01:44.149Z,95.60
2022-08-01T19:04:11.282Z,95.40
2022-08-01T19:06:38.699Z,95.90
2022-08-01T19:09:07.136Z,96.10
2022-08-01T19:11:34.532Z,95.90
2022-08-01T19:14:02.412Z,95.90
2022-08-01T19:16:29.381Z,96.00
2022-08-01T19:18:56.173Z,96.30
2022-08-01T19:21:23.409Z,96.70
2022-08-01T19:24:08.962Z,96.60
2022-08-01T19:26:37.380Z,97.00
2022-08-01T19:29:22.243Z,97.20
2022-08-01T19:31:49.989Z,97.00
2022-08-01T19:34:19.100Z,97.10
2022-08-01T19:36:47.900Z,97.60
2022-08-01T19:39:21.669Z,98.30
2022-08-01T19:41:52.669Z,98.30
2022-08-01T19:44:23.614Z,98.30
2022-08-01T19:46:52.715Z,98.20
2022-08-01T19:49:22.198Z,97.80
2022-08-01T19:51:55.792Z,97.70
2022-08-01T19:54:26.416Z,97.70
2022-08-01T19:56:54.167Z,98.00
2022-08-01T19:59:23.397Z,98.00
2022-08-01T20:01:52.359Z,98.60
2022-08-01T20:04:19.785Z,98.60
2022-08-01T20:06:47.959Z,98.60
2022-08-01T20:09:14.835Z,98.30
2022-08-01T20:11:47.266Z,98.30
2022-08-01T20:14:17.271Z,98.50
2022-08-01T20:16:44.164Z,98.70
2022-08-01T20:19:11.710Z,99.00
2022-08-01T20:21:40.317Z,99.90
2022-08-01T20:24:11.279Z,99.10
2022-08-01T20:26:39.539Z,99.30
2022-08-01T20:29:06.285Z,99.90
2022-08-01T20:31:43.881Z,99.90
2022-08-01T20:34:15.657Z,99.90
2022-08-01T20:36:54.764Z,99.90
2022-08-01T20:39:23.805Z,99.00
2022-08-01T20:42:00.217Z,98.70
2022-08-01T20:44:31.459Z,99.00
2022-08-01T20:46:59.291Z,99.30
2022-08-01T20:49:27.292Z,99.50
2022-08-01T20:51:54.108Z,99.40
2022-08-01T20:54:20.838Z,99.40
2022-08-01T20:56:50.341Z,99.90
2022-08-01T20:59:54.689Z,99.90
2022-08-01T21:02:47.732Z,99.90
2022-08-01T21:05:35.315Z,99.40
2022-08-01T21:08:12.309Z,99.40
2022-08-01T21:10:41.129Z,99.10
2022-08-01T21:13:20.998Z,99.10
2022-08-01T21:16:11.109Z,99.40
2022-08-01T21:19:03.584Z,98.90
2022-08-01T21:21:38.331Z,99.30
2022-08-01T21:24:17.470Z,99.10
2022-08-01T21:26:45.955Z,99.50
2022-08-01T21:29:13.222Z,99.80
2022-08-01T21:31:41.785Z,99.90
2022-08-01T21:34:09.082Z,99.90
2022-08-01T21:36:36.511Z,99.90
2022-08-01T21:39:05.659Z,99.90
2022-08-01T21:42:01.501Z,99.90
2022-08-01T21:44:19.957Z,99.90
2022-08-01T21:46:48.409Z,99.90
2022-08-01T21:49:15.389Z,99.90
2022-08-01T21:51:51.902Z,99.90
2022-08-01T21:54:34.122Z,99.90
2022-08-01T21:57:09.190Z,99.90
2022-08-01T21:59:55.271Z,99.90
2022-08-01T22:02:36.779Z,99.90
2022-08-01T22:05:10.295Z,99.90
2022-08-01T22:07:46.425Z,99.90
2022-08-01T22:10:16.311Z,99.90
2022-08-01T22:12:44.178Z,99.90
2022-08-01T22:15:12.394Z,99.90
2022-08-01T22:17:39.805Z,99.90
2022-08-01T22:20:07.599Z,99.90
2022-08-01T22:22:51.408Z,99.90
2022-08-01T22:25:24.706Z,99.90
2022-08-01T22:28:03.141Z,99.90
2022-08-01T22:30:42.003Z,99.90
2022-08-01T22:33:16.447Z,99.90
2022-08-01T22:35:49.826Z,99.90
2022-08-01T22:38:23.165Z,99.90
2022-08-01T22:40:53.381Z,99.90
2022-08-01T22:43:38.488Z,99.90
2022-08-01T22:46:29.897Z,99.90
2022-08-01T22:49:21.462Z,99.90
2022-08-01T22:51:56.026Z,99.90
2022-08-01T22:54:38.254Z,99.90
2022-08-01T22:57:11.220Z,99.90
2022-08-01T22:59:53.200Z,99.90
2022-08-01T23:02:21.736Z,99.90
2022-08-01T23:04:50.229Z,99.90
2022-08-01T23:07:23.971Z,99.90
2022-08-01T23:09:55.378Z,99.90
2022-08-01T23:12:25.423Z,99.90
2022-08-01T23:14:57.753Z,99.90
2022-08-01T23:17:28.936Z,99.90
2022-08-01T23:19:58.565Z,99.90
2022-08-01T23:22:29.216Z,99.90
2022-08-01T23:25:04.099Z,99.90
2022-08-01T23:28:03.982Z,99.90
2022-08-01T23:30:31.789Z,99.90
2022-08-01T23:32:58.987Z,99.90
2022-08-01T23:35:26.767Z,99.90
2022-08-01T23:38:01.752Z,99.90
2022-08-01T23:40:29.813Z,99.90
2022-08-01T23:42:56.602Z,99.90
2022-08-01T23:45:23.607Z,99.90
2022-08-01T23:47:50.596Z,99.90
2022-08-01T23:50:17.489Z,99.90
2022-08-01T23:52:49.676Z,99.90
2022-08-01T23:55:19.229Z,99.90
2022-08-01T23:57:51.162Z,99.90
